createdAt,value
2023-05-05T00:01:09.073Z,16.83
2023-05-05T00:03:35.843Z,16.84
2023-05-05T00:06:03.130Z,16.81
2023-05-05T00:08:29.819Z,16.82
2023-05-05T00:10:57.517Z,16.79
2023-05-05T00:13:24.673Z,16.71
2023-05-05T00:15:53.434Z,16.59
2023-05-05T00:18:21.058Z,16.59
2023-05-05T00:20:48.456Z,16.49
2023-05-05T00:23:20.040Z,16.51
2023-05-05T00:25:46.766Z,16.55
2023-05-05T00:28:14.312Z,16.51
2023-05-05T00:30:40.962Z,16.47
2023-05-05T00:33:07.468Z,16.36
2023-05-05T00:35:34.136Z,16.34
2023-05-05T00:38:00.650Z,16.24
2023-05-05T00:40:27.629Z,16.18
2023-05-05T00:42:54.268Z,16.20
2023-05-05T00:45:21.020Z,16.21
2023-05-05T00:47:54.803Z,16.19
2023-05-05T00:50:26.342Z,16.20
2023-05-05T00:52:55.348Z,16.22
2023-05-05T00:55:22.189Z,16.19
2023-05-05T00:57:49.601Z,16.18
2023-05-05T01:00:16.950Z,16.23
2023-05-05T01:02:44.337Z,16.23
2023-05-05T01:05:13.320Z,16.26
2023-05-05T01:08:04.612Z,16.29
2023-05-05T01:10:48.786Z,16.25
2023-05-05T01:13:34.152Z,16.30
2023-05-05T01:16:22.942Z,16.29
2023-05-05T01:19:17.235Z,16.28
2023-05-05T01:21:48.672Z,16.32
2023-05-05T01:24:39.504Z,16.37
2023-05-05T01:27:31.052Z,16.35
2023-05-05T01:30:26.611Z,16.36
2023-05-05T01:32:56.894Z,16.34
2023-05-05T01:35:37.732Z,16.41
2023-05-05T01:38:34.705Z,16.46
2023-05-05T01:41:13.359Z,16.42
2023-05-05T01:43:43.923Z,16.44
2023-05-05T01:46:11.680Z,16.43
2023-05-05T01:48:41.059Z,16.35
2023-05-05T01:51:10.458Z,16.23
2023-05-05T01:53:38.441Z,16.06
2023-05-05T01:56:05.674Z,15.94
2023-05-05T01:58:33.670Z,16.07
2023-05-05T02:01:01.786Z,15.98
2023-05-05T02:03:30.434Z,15.98
2023-05-05T02:05:58.535Z,16.03
2023-05-05T02:08:26.207Z,16.04
2023-05-05T02:10:54.535Z,16.10
2023-05-05T02:13:23.461Z,16.15
2023-05-05T02:15:51.159Z,16.14
2023-05-05T02:18:18.609Z,16.08
2023-05-05T02:20:47.016Z,16.02
2023-05-05T02:23:13.520Z,15.98
2023-05-05T02:25:46.812Z,16.03
2023-05-05T02:28:18.476Z,16.11
2023-05-05T02:30:51.508Z,16.14
2023-05-05T02:33:20.570Z,16.18
2023-05-05T02:35:47.297Z,16.12
2023-05-05T02:38:17.432Z,16.00
2023-05-05T02:40:46.180Z,15.84
2023-05-05T02:43:17.022Z,15.76
2023-05-05T02:45:44.464Z,15.76
2023-05-05T02:48:12.954Z,15.76
2023-05-05T02:50:39.536Z,15.69
2023-05-05T02:53:06.180Z,15.70
2023-05-05T02:55:50.551Z,15.59
2023-05-05T02:58:34.061Z,15.42
2023-05-05T03:01:29.451Z,15.24
2023-05-05T03:04:07.322Z,15.14
2023-05-05T03:06:41.123Z,15.05
2023-05-05T03:09:18.038Z,15.01
2023-05-05T03:11:50.940Z,14.86
2023-05-05T03:14:19.744Z,14.85
2023-05-05T03:16:47.275Z,14.84
2023-05-05T03:19:17.267Z,14.85
2023-05-05T03:21:44.131Z,14.86
2023-05-05T03:24:17.984Z,14.82
2023-05-05T03:26:46.342Z,14.77
2023-05-05T03:29:13.776Z,14.70
2023-05-05T03:31:40.552Z,14.66
2023-05-05T03:34:07.449Z,14.68
2023-05-05T03:36:35.152Z,14.59
2023-05-05T03:39:01.671Z,14.56
2023-05-05T03:41:28.355Z,14.50
2023-05-05T03:43:54.822Z,14.51
2023-05-05T03:46:21.469Z,14.53
2023-05-05T03:48:48.559Z,14.44
2023-05-05T03:51:15.128Z,14.47
2023-05-05T03:53:41.794Z,14.46
2023-05-05T03:56:08.372Z,14.49
2023-05-05T03:58:34.961Z,14.47
2023-05-05T04:01:01.796Z,14.51
2023-05-05T04:03:28.354Z,14.50
2023-05-05T04:05:54.860Z,14.46
2023-05-05T04:08:21.554Z,14.45
2023-05-05T04:10:48.101Z,14.44
2023-05-05T04:13:14.696Z,14.37
2023-05-05T04:15:46.039Z,14.36
2023-05-05T04:18:12.754Z,14.38
2023-05-05T04:20:39.319Z,14.26
2023-05-05T04:23:05.892Z,14.22
2023-05-05T04:25:32.682Z,14.26
2023-05-05T04:27:59.199Z,14.32
2023-05-05T04:30:25.645Z,14.33
2023-05-05T04:32:52.169Z,14.34
2023-05-05T04:35:18.801Z,14.35
2023-05-05T04:37:45.273Z,14.32
2023-05-05T04:40:12.051Z,14.28
2023-05-05T04:42:38.558Z,14.21
2023-05-05T04:45:05.549Z,14.11
2023-05-05T04:47:32.087Z,14.07
2023-05-05T04:49:58.590Z,14.04
2023-05-05T04:52:25.019Z,14.07
2023-05-05T04:54:51.578Z,14.12
2023-05-05T04:57:18.055Z,14.21
2023-05-05T04:59:44.607Z,14.30
2023-05-05T05:02:11.078Z,14.40
2023-05-05T05:04:37.588Z,14.47
2023-05-05T05:07:04.141Z,14.52
2023-05-05T05:09:30.598Z,14.56
2023-05-05T05:12:01.065Z,14.52
2023-05-05T05:14:28.206Z,14.54
2023-05-05T05:16:54.937Z,14.58
2023-05-05T05:19:21.687Z,14.59
2023-05-05T05:21:48.156Z,14.73
2023-05-05T05:24:14.583Z,14.80
2023-05-05T05:26:41.270Z,14.82
2023-05-05T05:29:07.761Z,14.88
2023-05-05T05:31:34.603Z,14.83
2023-05-05T05:34:01.147Z,14.85
2023-05-05T05:36:27.580Z,14.84
2023-05-05T05:38:54.060Z,14.89
2023-05-05T05:41:21.602Z,14.87
2023-05-05T05:43:48.042Z,14.91
2023-05-05T05:46:14.758Z,14.98
2023-05-05T05:48:41.449Z,14.99
2023-05-05T05:51:08.031Z,15.06
2023-05-05T05:53:34.484Z,15.02
2023-05-05T05:56:01.509Z,15.09
2023-05-05T05:58:27.970Z,15.15
2023-05-05T06:00:54.592Z,15.22
2023-05-05T06:03:21.236Z,15.21
2023-05-05T06:05:47.802Z,15.16
2023-05-05T06:08:14.234Z,15.20
2023-05-05T06:10:41.094Z,15.20
2023-05-05T06:13:07.700Z,15.19
2023-05-05T06:15:34.258Z,15.20
2023-05-05T06:18:00.793Z,15.21
2023-05-05T06:20:27.553Z,15.25
2023-05-05T06:22:53.993Z,15.37
2023-05-05T06:25:20.538Z,15.46
2023-05-05T06:27:47.032Z,15.52
2023-05-05T06:30:14.687Z,15.50
2023-05-05T06:32:41.244Z,15.56
2023-05-05T06:35:08.206Z,15.60
2023-05-05T06:37:37.703Z,15.59
2023-05-05T06:40:04.958Z,15.58
2023-05-05T06:42:32.197Z,15.57
2023-05-05T06:44:58.656Z,15.56
2023-05-05T06:47:25.278Z,15.59
2023-05-05T06:49:51.912Z,15.70
2023-05-05T06:52:18.475Z,15.83
2023-05-05T06:54:44.924Z,15.88
2023-05-05T06:57:11.653Z,15.93
2023-05-05T06:59:38.105Z,16.03
2023-05-05T07:02:04.628Z,16.13
2023-05-05T07:04:31.597Z,16.17
2023-05-05T07:06:58.443Z,16.19
2023-05-05T07:09:25.124Z,16.24
2023-05-05T07:11:51.778Z,16.40
2023-05-05T07:14:18.196Z,16.47
2023-05-05T07:16:44.699Z,16.58
2023-05-05T07:19:11.126Z,16.72
2023-05-05T07:21:37.684Z,16.83
2023-05-05T07:24:04.232Z,16.99
2023-05-05T07:26:31.457Z,17.09
2023-05-05T07:28:58.868Z,17.20
2023-05-05T07:31:26.360Z,17.17
2023-05-05T07:33:52.952Z,17.15
2023-05-05T07:36:19.665Z,17.26
2023-05-05T07:38:46.153Z,17.42
2023-05-05T07:41:13.022Z,17.43
2023-05-05T07:43:44.541Z,17.57
2023-05-05T07:46:11.673Z,17.72
2023-05-05T07:48:41.657Z,17.94
2023-05-05T07:51:08.485Z,18.00
2023-05-05T07:53:35.053Z,18.00
2023-05-05T07:56:01.520Z,17.97
2023-05-05T07:58:28.056Z,18.05
2023-05-05T08:00:54.568Z,18.06
2023-05-05T08:03:24.324Z,18.17
2023-05-05T08:05:54.019Z,18.23
2023-05-05T08:08:24.424Z,18.30
2023-05-05T08:10:52.909Z,18.46
2023-05-05T08:13:19.477Z,18.60
2023-05-05T08:15:45.953Z,18.68
2023-05-05T08:18:12.472Z,18.82
2023-05-05T08:20:38.985Z,18.73
2023-05-05T08:23:05.587Z,18.75
2023-05-05T08:25:32.020Z,18.76
2023-05-05T08:27:58.511Z,18.92
2023-05-05T08:30:25.069Z,19.11
2023-05-05T08:32:51.604Z,19.19
2023-05-05T08:35:18.208Z,19.34
2023-05-05T08:37:44.871Z,19.56
2023-05-05T08:40:14.165Z,19.75
2023-05-05T08:42:41.757Z,19.49
2023-05-05T08:45:09.968Z,19.32
2023-05-05T08:47:38.025Z,19.18
2023-05-05T08:50:08.336Z,18.97
2023-05-05T08:52:40.949Z,18.85
2023-05-05T08:55:10.222Z,18.89
2023-05-05T08:57:49.602Z,19.01
2023-05-05T09:00:18.897Z,19.00
2023-05-05T09:02:46.576Z,18.93
2023-05-05T09:05:13.413Z,18.96
2023-05-05T09:07:44.136Z,19.08
2023-05-05T09:10:11.943Z,19.09
2023-05-05T09:12:42.052Z,18.98
2023-05-05T09:15:13.387Z,18.94
2023-05-05T09:17:40.977Z,19.06
2023-05-05T09:20:08.641Z,19.02
2023-05-05T09:22:38.844Z,18.89
2023-05-05T09:25:06.725Z,18.84
2023-05-05T09:27:43.647Z,18.73
2023-05-05T09:30:12.094Z,18.72
2023-05-05T09:32:55.118Z,18.71
2023-05-05T09:35:23.038Z,18.72
2023-05-05T09:37:49.584Z,18.83
2023-05-05T09:40:18.152Z,18.86
2023-05-05T09:42:45.185Z,18.85
2023-05-05T09:45:17.784Z,18.96
2023-05-05T09:47:48.513Z,18.95
2023-05-05T09:50:18.680Z,19.00
2023-05-05T09:53:00.182Z,19.04
2023-05-05T09:55:26.738Z,19.10
2023-05-05T09:57:53.276Z,19.15
2023-05-05T10:00:20.558Z,19.16
2023-05-05T10:02:47.642Z,19.12
2023-05-05T10:05:15.349Z,19.20
2023-05-05T10:07:47.155Z,19.23
2023-05-05T10:10:17.216Z,19.20
2023-05-05T10:12:46.683Z,19.13
2023-05-05T10:15:15.676Z,19.02
2023-05-05T10:18:05.148Z,18.98
2023-05-05T10:20:36.431Z,19.01
2023-05-05T10:23:07.979Z,18.99
2023-05-05T10:25:53.309Z,18.89
2023-05-05T10:28:31.466Z,18.95
2023-05-05T10:31:00.677Z,18.91
2023-05-05T10:34:03.494Z,18.72
2023-05-05T10:36:31.761Z,18.50
2023-05-05T10:38:59.880Z,18.45
2023-05-05T10:41:26.989Z,18.38
2023-05-05T10:43:57.192Z,18.28
2023-05-05T10:46:25.496Z,18.07
2023-05-05T10:48:59.256Z,17.76
2023-05-05T10:51:44.061Z,17.49
2023-05-05T10:54:20.867Z,17.28
2023-05-05T10:56:47.387Z,17.13
2023-05-05T10:59:36.094Z,17.05
2023-05-05T11:02:25.480Z,16.86
2023-05-05T11:05:14.336Z,16.63
2023-05-05T11:07:42.185Z,16.15
2023-05-05T11:10:10.918Z,15.56
2023-05-05T11:12:57.765Z,15.13
2023-05-05T11:15:30.324Z,14.70
2023-05-05T11:17:58.462Z,14.28
2023-05-05T11:20:47.933Z,14.10
2023-05-05T11:23:20.355Z,13.94
2023-05-05T11:25:47.186Z,13.73
2023-05-05T11:28:16.299Z,13.60
2023-05-05T11:30:54.715Z,13.53
2023-05-05T11:33:25.771Z,13.49
2023-05-05T11:35:56.360Z,13.42
2023-05-05T11:38:36.027Z,13.53
2023-05-05T11:41:33.501Z,13.70
2023-05-05T11:44:14.298Z,13.69
2023-05-05T11:47:01.891Z,13.80
2023-05-05T11:49:39.170Z,13.80
2023-05-05T11:52:07.401Z,13.84
2023-05-05T11:54:40.541Z,13.76
2023-05-05T11:57:08.595Z,13.70
2023-05-05T11:59:37.472Z,13.72
2023-05-05T12:02:04.777Z,13.71
2023-05-05T12:04:32.007Z,13.74
2023-05-05T12:07:01.651Z,13.72
2023-05-05T12:09:28.466Z,13.66
2023-05-05T12:11:56.292Z,13.65
2023-05-05T12:14:24.614Z,13.64
2023-05-05T12:16:54.636Z,13.65
2023-05-05T12:19:21.119Z,13.72
2023-05-05T12:21:47.647Z,13.74
2023-05-05T12:24:14.365Z,13.75
2023-05-05T12:26:41.246Z,13.75
2023-05-05T12:29:07.798Z,13.72
2023-05-05T12:31:41.934Z,13.66
2023-05-05T12:34:10.333Z,13.64
2023-05-05T12:36:37.549Z,13.65
2023-05-05T12:39:05.396Z,13.67
2023-05-05T12:41:32.591Z,13.72
2023-05-05T12:44:00.045Z,13.73
2023-05-05T12:46:29.564Z,13.74
2023-05-05T12:49:04.877Z,13.77
2023-05-05T12:51:33.026Z,13.77
2023-05-05T12:54:03.675Z,13.77
2023-05-05T12:56:34.598Z,13.84
2023-05-05T12:59:02.495Z,13.88
2023-05-05T13:01:30.511Z,13.89
2023-05-05T13:04:10.926Z,13.91
2023-05-05T13:06:42.858Z,13.88
2023-05-05T13:09:21.930Z,13.83
2023-05-05T13:11:48.462Z,13.85
2023-05-05T13:14:14.964Z,13.89
2023-05-05T13:16:41.661Z,13.96
2023-05-05T13:19:08.144Z,14.00
2023-05-05T13:21:34.627Z,13.94
2023-05-05T13:24:19.824Z,13.90
2023-05-05T13:26:48.451Z,13.89
2023-05-05T13:29:16.429Z,13.89
2023-05-05T13:31:43.746Z,13.89
2023-05-05T13:34:10.596Z,13.85
2023-05-05T13:36:37.619Z,13.87
2023-05-05T13:39:04.234Z,13.90
2023-05-05T13:41:30.766Z,13.91
2023-05-05T13:43:57.368Z,14.00
2023-05-05T13:46:23.866Z,14.03
2023-05-05T13:48:52.623Z,14.01
2023-05-05T13:51:22.789Z,13.97
2023-05-05T13:53:49.316Z,13.91
2023-05-05T13:56:15.894Z,13.91
2023-05-05T13:58:42.758Z,13.86
2023-05-05T14:01:10.744Z,13.91
2023-05-05T14:03:39.462Z,14.00
2023-05-05T14:06:07.468Z,14.10
2023-05-05T14:08:34.092Z,14.20
2023-05-05T14:11:00.647Z,14.21
2023-05-05T14:13:27.152Z,14.18
2023-05-05T14:15:53.839Z,14.26
2023-05-05T14:18:20.860Z,14.23
2023-05-05T14:20:47.428Z,14.29
2023-05-05T14:23:14.998Z,14.37
2023-05-05T14:25:41.500Z,14.24
2023-05-05T14:28:07.985Z,14.22
2023-05-05T14:30:34.616Z,14.17
2023-05-05T14:33:01.431Z,14.20
2023-05-05T14:35:28.038Z,14.27
2023-05-05T14:37:54.508Z,14.21
2023-05-05T14:40:21.116Z,14.32
2023-05-05T14:42:48.503Z,14.42
2023-05-05T14:45:15.013Z,14.48
2023-05-05T14:47:41.549Z,14.47
2023-05-05T14:50:09.843Z,14.66
2023-05-05T14:52:38.977Z,14.81
2023-05-05T14:55:06.366Z,14.99
2023-05-05T14:57:32.924Z,15.16
2023-05-05T14:59:59.495Z,15.24
2023-05-05T15:02:26.269Z,14.95
2023-05-05T15:04:53.127Z,15.11
2023-05-05T15:07:20.522Z,15.16
2023-05-05T15:09:47.037Z,15.13
2023-05-05T15:12:13.659Z,15.12
2023-05-05T15:14:40.840Z,15.08
2023-05-05T15:17:07.359Z,14.98
2023-05-05T15:19:33.796Z,14.97
2023-05-05T15:22:00.308Z,15.09
2023-05-05T15:24:26.782Z,15.18
2023-05-05T15:26:53.309Z,15.24
2023-05-05T15:29:19.849Z,15.40
2023-05-05T15:31:46.381Z,15.56
2023-05-05T15:34:12.892Z,15.68
2023-05-05T15:36:39.347Z,15.48
2023-05-05T15:39:05.823Z,15.54
2023-05-05T15:41:34.562Z,15.57
2023-05-05T15:44:03.102Z,15.48
2023-05-05T15:46:33.441Z,15.49
2023-05-05T15:49:00.148Z,15.55
2023-05-05T15:51:27.317Z,15.63
2023-05-05T15:53:53.844Z,15.59
2023-05-05T15:56:20.506Z,15.63
2023-05-05T15:58:46.974Z,15.66
2023-05-05T16:01:13.468Z,15.70
2023-05-05T16:03:40.008Z,15.71
2023-05-05T16:06:06.882Z,15.89
2023-05-05T16:08:33.380Z,16.14
2023-05-05T16:10:59.858Z,16.24
2023-05-05T16:13:26.687Z,16.08
2023-05-05T16:15:53.225Z,16.02
2023-05-05T16:18:19.688Z,16.10
2023-05-05T16:20:46.346Z,15.99
2023-05-05T16:23:12.898Z,15.85
2023-05-05T16:25:39.371Z,15.72
2023-05-05T16:28:06.047Z,15.76
2023-05-05T16:30:32.557Z,15.85
2023-05-05T16:32:59.056Z,15.94
2023-05-05T16:35:25.594Z,16.02
2023-05-05T16:37:52.586Z,16.35
2023-05-05T16:40:19.261Z,16.64
2023-05-05T16:42:45.864Z,16.66
2023-05-05T16:45:12.394Z,16.53
2023-05-05T16:47:38.962Z,16.39
2023-05-05T16:50:06.276Z,16.39
2023-05-05T16:52:32.802Z,16.48
2023-05-05T16:54:59.246Z,16.46
2023-05-05T16:57:26.046Z,16.36
2023-05-05T16:59:56.035Z,16.27
2023-05-05T17:02:22.868Z,16.14
2023-05-05T17:04:49.357Z,16.11
2023-05-05T17:07:15.875Z,16.15
2023-05-05T17:09:42.330Z,16.24
2023-05-05T17:12:08.859Z,16.34
2023-05-05T17:14:35.492Z,16.39
2023-05-05T17:17:02.099Z,16.38
2023-05-05T17:19:28.811Z,16.57
2023-05-05T17:21:55.380Z,16.47
2023-05-05T17:24:21.924Z,16.35
2023-05-05T17:26:48.982Z,16.27
2023-05-05T17:29:19.648Z,16.30
2023-05-05T17:31:46.901Z,16.31
2023-05-05T17:34:13.452Z,16.32
2023-05-05T17:36:40.154Z,16.36
2023-05-05T17:39:06.597Z,16.38
2023-05-05T17:41:33.087Z,16.30
2023-05-05T17:43:59.649Z,16.28
2023-05-05T17:46:26.424Z,16.29
2023-05-05T17:48:53.743Z,16.30
2023-05-05T17:51:20.248Z,16.20
2023-05-05T17:53:46.731Z,16.19
2023-05-05T17:56:13.157Z,16.25
2023-05-05T17:58:39.612Z,16.27
2023-05-05T18:01:06.226Z,16.30
2023-05-05T18:03:32.844Z,16.29
2023-05-05T18:05:59.437Z,16.34
2023-05-05T18:08:26.909Z,16.32
2023-05-05T18:10:54.156Z,16.30
2023-05-05T18:13:21.438Z,16.22
2023-05-05T18:15:48.024Z,16.26
2023-05-05T18:18:14.684Z,16.26
2023-05-05T18:20:41.166Z,16.24
2023-05-05T18:23:07.681Z,16.24
2023-05-05T18:25:34.162Z,16.22
2023-05-05T18:28:00.616Z,16.17
2023-05-05T18:30:27.211Z,16.03
2023-05-05T18:32:53.791Z,15.93
2023-05-05T18:35:21.382Z,15.83
2023-05-05T18:37:47.960Z,15.81
2023-05-05T18:40:14.561Z,15.77
2023-05-05T18:42:41.589Z,15.72
2023-05-05T18:45:10.626Z,15.70
2023-05-05T18:47:38.961Z,15.64
2023-05-05T18:50:06.709Z,15.54
2023-05-05T18:52:33.698Z,15.50
2023-05-05T18:55:00.184Z,15.47
2023-05-05T18:57:27.306Z,15.45
2023-05-05T18:59:53.786Z,15.45
2023-05-05T19:02:20.332Z,15.36
2023-05-05T19:04:46.897Z,15.31
2023-05-05T19:07:23.911Z,15.20
2023-05-05T19:09:58.087Z,15.06
2023-05-05T19:12:24.628Z,14.99
2023-05-05T19:14:51.175Z,14.91
2023-05-05T19:17:17.677Z,14.93
2023-05-05T19:19:44.116Z,14.93
2023-05-05T19:22:10.600Z,14.83
2023-05-05T19:24:37.115Z,14.76
2023-05-05T19:27:03.909Z,14.70
2023-05-05T19:29:33.813Z,14.68
2023-05-05T19:32:00.317Z,14.64
2023-05-05T19:34:26.957Z,14.56
2023-05-05T19:36:53.474Z,14.50
2023-05-05T19:39:19.927Z,14.46
2023-05-05T19:41:46.478Z,14.47
2023-05-05T19:44:12.986Z,14.45
2023-05-05T19:46:39.530Z,14.41
2023-05-05T19:49:06.208Z,14.39
2023-05-05T19:51:32.799Z,14.39
2023-05-05T19:53:59.469Z,14.36
2023-05-05T19:56:26.293Z,14.33
2023-05-05T19:58:53.603Z,14.29
2023-05-05T20:01:20.106Z,14.21
2023-05-05T20:03:46.692Z,14.14
2023-05-05T20:06:13.289Z,14.15
2023-05-05T20:08:39.847Z,14.11
2023-05-05T20:11:06.332Z,14.08
2023-05-05T20:13:34.329Z,14.02
2023-05-05T20:16:01.488Z,13.97
2023-05-05T20:18:27.974Z,13.90
2023-05-05T20:20:54.493Z,13.86
2023-05-05T20:23:21.277Z,13.84
2023-05-05T20:25:48.030Z,13.79
2023-05-05T20:28:14.533Z,13.71
2023-05-05T20:30:41.093Z,13.70
2023-05-05T20:33:07.566Z,13.58
2023-05-05T20:35:34.661Z,13.55
2023-05-05T20:38:03.580Z,13.50
2023-05-05T20:40:30.694Z,13.54
2023-05-05T20:42:57.468Z,13.55
2023-05-05T20:45:24.848Z,13.53
2023-05-05T20:47:51.769Z,13.47
2023-05-05T20:50:20.527Z,13.38
2023-05-05T20:52:47.501Z,13.32
2023-05-05T20:55:14.181Z,13.31
2023-05-05T20:57:40.706Z,13.31
2023-05-05T21:00:08.099Z,13.31
2023-05-05T21:02:34.722Z,13.38
2023-05-05T21:05:04.304Z,13.36
2023-05-05T21:07:33.148Z,13.33
2023-05-05T21:10:00.846Z,13.28
2023-05-05T21:12:29.101Z,13.23
2023-05-05T21:14:59.551Z,13.13
2023-05-05T21:17:27.047Z,13.03
2023-05-05T21:19:53.963Z,13.04
2023-05-05T21:22:21.373Z,13.05
2023-05-05T21:24:48.197Z,12.97
2023-05-05T21:27:15.002Z,12.95
2023-05-05T21:29:41.492Z,12.99
2023-05-05T21:32:10.478Z,13.02
2023-05-05T21:34:38.359Z,13.06
2023-05-05T21:37:06.563Z,13.09
2023-05-05T21:39:33.268Z,13.07
2023-05-05T21:42:00.638Z,12.98
2023-05-05T21:44:28.268Z,12.90
2023-05-05T21:46:55.274Z,12.83
2023-05-05T21:49:21.780Z,12.81
2023-05-05T21:51:48.310Z,12.90
2023-05-05T21:54:14.829Z,12.89
2023-05-05T21:56:41.384Z,12.93
2023-05-05T21:59:07.856Z,12.83
2023-05-05T22:01:34.929Z,12.76
2023-05-05T22:04:01.594Z,12.76
2023-05-05T22:06:28.414Z,12.65
2023-05-05T22:08:56.619Z,12.56
2023-05-05T22:11:23.445Z,12.48
2023-05-05T22:13:49.897Z,12.46
2023-05-05T22:16:19.823Z,12.56
2023-05-05T22:18:46.797Z,12.58
2023-05-05T22:21:13.590Z,12.52
2023-05-05T22:23:41.930Z,12.50
2023-05-05T22:26:09.309Z,12.52
2023-05-05T22:28:36.125Z,12.52
2023-05-05T22:31:02.777Z,12.55
2023-05-05T22:33:29.340Z,12.49
2023-05-05T22:35:56.124Z,12.42
2023-05-05T22:38:22.742Z,12.39
2023-05-05T22:40:49.415Z,12.44
2023-05-05T22:43:15.943Z,12.48
2023-05-05T22:45:43.320Z,12.47
2023-05-05T22:48:10.122Z,12.41
2023-05-05T22:50:37.363Z,12.45
2023-05-05T22:53:03.814Z,12.45
2023-05-05T22:55:30.426Z,12.41
2023-05-05T22:57:56.862Z,12.43
2023-05-05T23:00:24.163Z,12.43
2023-05-05T23:02:50.805Z,12.50
2023-05-05T23:05:17.415Z,12.58
2023-05-05T23:07:43.920Z,12.58
2023-05-05T23:10:10.745Z,12.54
2023-05-05T23:12:37.264Z,12.51
2023-05-05T23:15:04.640Z,12.56
2023-05-05T23:17:31.177Z,12.54
2023-05-05T23:19:57.838Z,12.53
2023-05-05T23:22:24.308Z,12.51
2023-05-05T23:24:50.791Z,12.44
2023-05-05T23:27:17.288Z,12.40
2023-05-05T23:29:43.820Z,12.44
2023-05-05T23:32:10.277Z,12.50
2023-05-05T23:34:36.773Z,12.45
2023-05-05T23:37:05.381Z,12.44
2023-05-05T23:39:34.230Z,12.40
2023-05-05T23:42:00.742Z,12.44
2023-05-05T23:44:27.715Z,12.47
2023-05-05T23:46:54.484Z,12.46
2023-05-05T23:49:21.132Z,12.45
2023-05-05T23:51:47.604Z,12.42
2023-05-05T23:54:14.073Z,12.49
2023-05-05T23:56:41.087Z,12.56
2023-05-05T23:59:07.552Z,12.59
